createdAt,value
2019-05-22T00:00:05.630Z,0
2019-05-22T00:01:15.747Z,0
2019-05-22T00:02:25.944Z,0
2019-05-22T00:03:36.068Z,0
2019-05-22T00:04:46.735Z,0
2019-05-22T00:05:56.909Z,0
2019-05-22T00:07:07.024Z,0
2019-05-22T00:08:17.498Z,0
2019-05-22T00:09:27.656Z,0
2019-05-22T00:10:37.806Z,0
2019-05-22T00:11:47.927Z,0
2019-05-22T00:12:58.082Z,0
2019-05-22T00:14:08.190Z,0
2019-05-22T00:15:18.527Z,0
2019-05-22T00:16:28.422Z,0
2019-05-22T00:17:38.625Z,0
2019-05-22T00:18:48.742Z,0
2019-05-22T00:19:58.846Z,0
2019-05-22T00:21:09.084Z,0
2019-05-22T00:22:19.202Z,0
2019-05-22T00:23:29.330Z,0
2019-05-22T00:24:39.453Z,0
2019-05-22T00:25:49.572Z,0
2019-05-22T00:26:59.691Z,0
2019-05-22T00:28:09.831Z,0
2019-05-22T00:29:19.963Z,0
2019-05-22T00:30:29.830Z,0
2019-05-22T00:31:39.937Z,0
2019-05-22T00:32:50.047Z,0
2019-05-22T00:34:00.160Z,0
2019-05-22T00:35:10.282Z,0
2019-05-22T00:36:20.404Z,0
2019-05-22T00:37:30.599Z,0
2019-05-22T00:38:40.736Z,0
2019-05-22T00:39:50.937Z,0
2019-05-22T00:41:01.344Z,0
2019-05-22T00:42:11.462Z,0
2019-05-22T00:43:23.944Z,0
2019-05-22T00:44:34.102Z,0
2019-05-22T00:45:44.211Z,0
2019-05-22T00:46:53.957Z,0
2019-05-22T00:48:04.080Z,0
2019-05-22T00:49:14.231Z,0
2019-05-22T00:50:24.348Z,0
2019-05-22T00:51:34.452Z,0
2019-05-22T00:52:44.640Z,0
2019-05-22T00:53:54.811Z,0
2019-05-22T00:55:04.919Z,0
2019-05-22T00:56:15.047Z,0
2019-05-22T00:57:24.910Z,0
2019-05-22T00:58:35.015Z,0
2019-05-22T00:59:45.189Z,0
2019-05-22T01:00:55.304Z,0
2019-05-22T01:02:05.417Z,0
2019-05-22T01:03:15.627Z,0
2019-05-22T01:04:25.774Z,0
2019-05-22T01:05:35.968Z,0
2019-05-22T01:06:46.160Z,0
2019-05-22T01:07:56.309Z,0
2019-05-22T01:09:06.413Z,0
2019-05-22T01:10:17.073Z,0
2019-05-22T01:11:26.943Z,0
2019-05-22T01:12:37.067Z,0
2019-05-22T01:13:47.171Z,0
2019-05-22T01:14:57.372Z,0
2019-05-22T01:16:07.484Z,0
2019-05-22T01:17:17.643Z,0
2019-05-22T01:18:27.744Z,0
2019-05-22T01:19:38.007Z,0
2019-05-22T01:20:48.108Z,0
2019-05-22T01:21:58.208Z,0
2019-05-22T01:23:08.346Z,0
2019-05-22T01:24:18.487Z,0
2019-05-22T01:25:28.334Z,0
2019-05-22T01:26:38.460Z,0
2019-05-22T01:27:48.589Z,0
2019-05-22T01:28:58.702Z,0
2019-05-22T01:30:08.861Z,0
2019-05-22T01:31:18.985Z,0
2019-05-22T01:32:29.133Z,0
2019-05-22T01:33:39.237Z,0
2019-05-22T01:34:49.384Z,0
2019-05-22T01:35:59.486Z,0
2019-05-22T01:37:09.692Z,0
2019-05-22T01:38:19.467Z,0
2019-05-22T01:39:29.579Z,0
2019-05-22T01:40:39.689Z,0
2019-05-22T01:41:49.835Z,0
2019-05-22T01:42:59.945Z,0
2019-05-22T01:44:10.068Z,0
2019-05-22T01:45:20.168Z,0
2019-05-22T01:46:30.278Z,0
2019-05-22T01:47:40.421Z,0
2019-05-22T01:48:50.515Z,0
2019-05-22T01:50:00.635Z,0
2019-05-22T01:51:10.823Z,0
2019-05-22T01:52:20.961Z,0
2019-05-22T01:53:30.817Z,0
2019-05-22T01:54:40.971Z,0
2019-05-22T01:55:51.185Z,0
2019-05-22T01:57:01.303Z,0
2019-05-22T01:58:11.408Z,0
2019-05-22T01:59:21.505Z,0
2019-05-22T02:00:31.634Z,0
2019-05-22T02:01:41.745Z,0
2019-05-22T02:02:51.861Z,0
2019-05-22T02:04:01.989Z,0
2019-05-22T02:05:12.142Z,0
2019-05-22T02:06:22.250Z,0
2019-05-22T02:07:32.356Z,0
2019-05-22T02:08:42.473Z,0
2019-05-22T02:09:52.570Z,0
2019-05-22T02:11:02.700Z,0
2019-05-22T02:12:12.853Z,0
2019-05-22T02:13:22.754Z,0
2019-05-22T02:14:32.869Z,0
2019-05-22T02:15:42.973Z,0
2019-05-22T02:17:06.208Z,0
2019-05-22T02:18:16.348Z,0
2019-05-22T02:19:26.211Z,0
2019-05-22T02:20:36.325Z,0
2019-05-22T02:21:46.485Z,0
2019-05-22T02:22:56.594Z,0
2019-05-22T02:24:06.721Z,0
2019-05-22T02:25:17.322Z,0
2019-05-22T02:26:27.423Z,0
2019-05-22T02:27:37.551Z,0
2019-05-22T02:28:47.670Z,0
2019-05-22T02:29:57.802Z,0
2019-05-22T02:31:07.949Z,0
2019-05-22T02:32:18.149Z,0
2019-05-22T02:33:28.276Z,0
2019-05-22T02:34:38.501Z,0
2019-05-22T02:35:48.618Z,0
2019-05-22T02:36:58.747Z,0
2019-05-22T02:38:08.898Z,0
2019-05-22T02:39:19.101Z,0
2019-05-22T02:40:29.311Z,0
2019-05-22T02:41:39.467Z,0
2019-05-22T02:42:49.610Z,0
2019-05-22T02:43:59.717Z,0
2019-05-22T02:45:09.909Z,0
2019-05-22T02:46:20.058Z,0
2019-05-22T02:47:31.380Z,0
2019-05-22T02:48:44.823Z,0
2019-05-22T02:49:55.038Z,0
2019-05-22T02:51:05.201Z,0
2019-05-22T02:52:15.322Z,0
2019-05-22T02:53:25.448Z,0
2019-05-22T02:54:35.570Z,0
2019-05-22T02:55:45.690Z,0
2019-05-22T02:56:55.833Z,0
2019-05-22T02:58:05.965Z,0
2019-05-22T02:59:16.151Z,0
2019-05-22T03:00:26.345Z,0
2019-05-22T03:01:36.492Z,0
2019-05-22T03:02:46.622Z,0
2019-05-22T03:03:56.494Z,0
2019-05-22T03:05:06.870Z,0
2019-05-22T03:06:16.986Z,0
2019-05-22T03:07:27.112Z,0
2019-05-22T03:08:37.212Z,0
2019-05-22T03:09:49.200Z,0
2019-05-22T03:10:59.326Z,0
2019-05-22T03:12:09.444Z,0
2019-05-22T03:13:19.569Z,0
2019-05-22T03:14:29.676Z,0
2019-05-22T03:15:39.532Z,0
2019-05-22T03:16:49.647Z,0
2019-05-22T03:17:59.777Z,0
2019-05-22T03:19:18.809Z,0
2019-05-22T03:20:28.969Z,0
2019-05-22T03:21:39.162Z,0
2019-05-22T03:22:49.304Z,0
2019-05-22T03:23:59.449Z,0
2019-05-22T03:25:09.579Z,0
2019-05-22T03:26:19.761Z,0
2019-05-22T03:27:29.867Z,0
2019-05-22T03:28:39.978Z,0
2019-05-22T03:29:50.105Z,0
2019-05-22T03:31:00.269Z,5
2019-05-22T03:32:10.456Z,5
2019-05-22T03:33:20.685Z,5
2019-05-22T03:34:30.970Z,5
2019-05-22T03:35:41.339Z,5
2019-05-22T03:36:51.493Z,5
2019-05-22T03:38:01.712Z,5
2019-05-22T03:39:11.859Z,5
2019-05-22T03:40:21.977Z,5
2019-05-22T03:41:32.118Z,5
2019-05-22T03:42:41.657Z,5
2019-05-22T03:43:51.803Z,5
2019-05-22T03:45:01.968Z,5
2019-05-22T03:46:12.083Z,10
2019-05-22T03:47:22.220Z,5
2019-05-22T03:48:32.373Z,10
2019-05-22T03:49:42.494Z,10
2019-05-22T03:50:52.631Z,10
2019-05-22T03:52:02.530Z,10
2019-05-22T03:53:12.669Z,10
2019-05-22T03:54:22.787Z,10
2019-05-22T03:55:32.913Z,10
2019-05-22T03:56:43.163Z,10
2019-05-22T03:57:53.286Z,10
2019-05-22T03:59:03.412Z,10
2019-05-22T04:00:13.558Z,10
2019-05-22T04:01:23.716Z,10
2019-05-22T04:02:33.824Z,10
2019-05-22T04:03:44.077Z,10
2019-05-22T04:04:54.213Z,10
2019-05-22T04:06:04.400Z,10
2019-05-22T04:07:14.524Z,10
2019-05-22T04:08:24.861Z,10
2019-05-22T04:09:35.009Z,10
2019-05-22T04:10:48.335Z,10
2019-05-22T04:11:58.551Z,10
2019-05-22T04:13:08.685Z,10
2019-05-22T04:14:18.816Z,10
2019-05-22T04:15:28.994Z,10
2019-05-22T04:16:38.866Z,10
2019-05-22T04:17:49.078Z,10
2019-05-22T04:18:59.195Z,10
2019-05-22T04:20:09.349Z,10
2019-05-22T04:21:19.457Z,10
2019-05-22T04:22:29.389Z,10
2019-05-22T04:23:39.563Z,15
2019-05-22T04:24:49.680Z,15
2019-05-22T04:26:03.154Z,15
2019-05-22T04:27:13.280Z,15
2019-05-22T04:28:23.409Z,15
2019-05-22T04:29:33.554Z,15
2019-05-22T04:30:43.660Z,20
2019-05-22T04:31:53.850Z,20
2019-05-22T04:33:04.006Z,20
2019-05-22T04:34:14.140Z,20
2019-05-22T04:35:24.256Z,20
2019-05-22T04:36:34.368Z,20
2019-05-22T04:37:44.483Z,25
2019-05-22T04:38:54.631Z,25
2019-05-22T04:40:04.747Z,30
2019-05-22T04:41:14.891Z,30
2019-05-22T04:42:25.007Z,30
2019-05-22T04:43:35.146Z,25
2019-05-22T04:44:45.015Z,20
2019-05-22T04:45:55.133Z,20
2019-05-22T04:47:05.332Z,20
2019-05-22T04:48:15.476Z,20
2019-05-22T04:49:25.593Z,20
2019-05-22T04:50:35.934Z,15
2019-05-22T04:51:46.079Z,15
2019-05-22T04:52:56.043Z,15
2019-05-22T04:54:06.209Z,20
2019-05-22T04:55:16.326Z,20
2019-05-22T04:56:26.487Z,20
2019-05-22T04:57:36.612Z,20
2019-05-22T04:58:46.770Z,25
2019-05-22T04:59:56.918Z,30
2019-05-22T05:01:07.273Z,25
2019-05-22T05:02:17.391Z,30
2019-05-22T05:03:27.510Z,30
2019-05-22T05:04:37.660Z,30
2019-05-22T05:05:47.801Z,25
2019-05-22T05:06:57.937Z,30
2019-05-22T05:08:08.058Z,25
2019-05-22T05:09:18.197Z,30
2019-05-22T05:10:28.325Z,30
2019-05-22T05:11:38.191Z,35
2019-05-22T05:12:48.303Z,30
2019-05-22T05:13:58.157Z,30
2019-05-22T05:15:08.298Z,30
2019-05-22T05:16:18.405Z,30
2019-05-22T05:17:28.518Z,30
2019-05-22T05:18:38.661Z,30
2019-05-22T05:19:48.787Z,30
2019-05-22T05:20:58.891Z,30
2019-05-22T05:22:09.009Z,30
2019-05-22T05:23:19.132Z,30
2019-05-22T05:24:29.262Z,30
2019-05-22T05:25:39.377Z,25
2019-05-22T05:26:49.509Z,30
2019-05-22T05:27:59.672Z,30
2019-05-22T05:29:09.781Z,30
2019-05-22T05:30:19.911Z,30
2019-05-22T05:31:30.071Z,30
2019-05-22T05:32:40.191Z,30
2019-05-22T05:33:50.298Z,30
2019-05-22T05:35:00.410Z,30
2019-05-22T05:36:10.626Z,25
2019-05-22T05:37:20.738Z,30
2019-05-22T05:38:30.873Z,25
2019-05-22T05:39:41.003Z,25
2019-05-22T05:40:51.215Z,25
2019-05-22T05:42:01.342Z,20
2019-05-22T05:43:11.482Z,25
2019-05-22T05:44:21.592Z,25
2019-05-22T05:45:31.712Z,25
2019-05-22T05:46:41.826Z,30
2019-05-22T05:47:51.945Z,30
2019-05-22T05:49:02.088Z,30
2019-05-22T05:50:12.241Z,30
2019-05-22T05:51:22.359Z,30
2019-05-22T05:52:32.483Z,35
2019-05-22T05:53:42.595Z,35
2019-05-22T05:54:52.462Z,30
2019-05-22T05:56:02.605Z,30
2019-05-22T05:57:12.725Z,35
2019-05-22T05:58:22.836Z,35
2019-05-22T05:59:33.021Z,40
2019-05-22T06:00:47.063Z,45
2019-05-22T06:01:57.198Z,45
2019-05-22T06:03:07.327Z,45
2019-05-22T06:04:17.451Z,45
2019-05-22T06:05:27.571Z,40
2019-05-22T06:06:37.616Z,45
2019-05-22T06:07:47.763Z,50
2019-05-22T06:08:57.871Z,50
2019-05-22T06:10:07.797Z,60
2019-05-22T06:11:17.936Z,55
2019-05-22T06:12:28.048Z,45
2019-05-22T06:13:38.215Z,55
2019-05-22T06:14:48.365Z,70
2019-05-22T06:15:58.476Z,80
2019-05-22T06:17:08.658Z,70
2019-05-22T06:18:18.805Z,85
2019-05-22T06:19:28.675Z,60
2019-05-22T06:20:38.829Z,60
2019-05-22T06:21:48.961Z,45
2019-05-22T06:22:59.079Z,45
2019-05-22T06:24:09.216Z,40
2019-05-22T06:25:19.554Z,45
2019-05-22T06:26:29.710Z,45
2019-05-22T06:27:39.838Z,45
2019-05-22T06:28:49.969Z,55
2019-05-22T06:30:00.239Z,70
2019-05-22T06:31:10.366Z,175
2019-05-22T06:32:20.496Z,135
2019-05-22T06:33:30.646Z,85
2019-05-22T06:34:40.836Z,85
2019-05-22T06:35:50.969Z,80
2019-05-22T06:37:01.092Z,60
2019-05-22T06:38:11.285Z,70
2019-05-22T06:39:21.677Z,85
2019-05-22T06:40:31.585Z,85
2019-05-22T06:41:41.687Z,110
2019-05-22T06:42:51.805Z,130
2019-05-22T06:44:01.943Z,130
2019-05-22T06:45:13.164Z,110
2019-05-22T06:46:23.360Z,80
2019-05-22T06:47:33.479Z,80
2019-05-22T06:48:43.691Z,90
2019-05-22T06:49:53.561Z,85
2019-05-22T06:51:17.112Z,75
2019-05-22T06:52:28.774Z,75
2019-05-22T06:53:38.876Z,75
2019-05-22T06:54:48.992Z,85
2019-05-22T06:55:59.107Z,80
2019-05-22T06:57:09.223Z,80
2019-05-22T06:58:19.510Z,80
2019-05-22T06:59:29.769Z,90
2019-05-22T07:00:39.896Z,80
2019-05-22T07:01:50.048Z,65
2019-05-22T07:03:00.147Z,70
2019-05-22T07:04:10.013Z,90
2019-05-22T07:05:20.143Z,80
2019-05-22T07:06:30.255Z,75
2019-05-22T07:07:40.445Z,80
2019-05-22T07:08:50.553Z,65
2019-05-22T07:10:00.679Z,70
2019-05-22T07:11:11.092Z,90
2019-05-22T07:12:21.292Z,75
2019-05-22T07:13:31.437Z,80
2019-05-22T07:14:41.555Z,70
2019-05-22T07:15:51.716Z,75
2019-05-22T07:17:01.931Z,95
2019-05-22T07:18:15.119Z,115
2019-05-22T07:19:25.295Z,260
2019-05-22T07:20:35.171Z,235
2019-05-22T07:21:45.354Z,160
2019-05-22T07:22:55.571Z,125
2019-05-22T07:24:05.743Z,115
2019-05-22T07:25:15.875Z,100
2019-05-22T07:26:26.008Z,95
2019-05-22T07:27:36.142Z,120
2019-05-22T07:28:46.117Z,125
2019-05-22T07:29:56.287Z,140
2019-05-22T07:31:06.428Z,130
2019-05-22T07:32:16.564Z,125
2019-05-22T07:33:26.677Z,130
2019-05-22T07:34:36.812Z,130
2019-05-22T07:36:21.888Z,140
2019-05-22T07:37:32.019Z,120
2019-05-22T07:38:42.140Z,125
2019-05-22T07:39:52.266Z,130
2019-05-22T07:41:02.414Z,120
2019-05-22T07:42:12.526Z,135
2019-05-22T07:43:22.717Z,120
2019-05-22T07:44:32.868Z,130
2019-05-22T07:45:43.522Z,120
2019-05-22T07:46:53.674Z,160
2019-05-22T07:48:04.044Z,165
2019-05-22T07:49:14.181Z,140
2019-05-22T07:50:24.328Z,125
2019-05-22T07:51:48.391Z,120
2019-05-22T07:53:01.606Z,135
2019-05-22T07:54:11.771Z,140
2019-05-22T07:55:22.152Z,125
2019-05-22T07:56:32.031Z,130
2019-05-22T07:57:42.201Z,130
2019-05-22T07:58:52.367Z,125
2019-05-22T08:00:02.247Z,130
2019-05-22T08:01:12.373Z,125
2019-05-22T08:02:22.247Z,135
2019-05-22T08:03:32.375Z,110
2019-05-22T08:04:42.506Z,110
2019-05-22T08:05:52.631Z,130
2019-05-22T08:07:02.759Z,140
2019-05-22T08:08:12.935Z,115
2019-05-22T08:09:23.078Z,100
2019-05-22T08:10:33.329Z,110
2019-05-22T08:11:43.463Z,105
2019-05-22T08:12:53.701Z,135
2019-05-22T08:14:03.974Z,150
2019-05-22T08:15:14.139Z,145
2019-05-22T08:16:24.567Z,140
2019-05-22T08:17:34.708Z,145
2019-05-22T08:18:44.865Z,125
2019-05-22T08:19:55.007Z,145
2019-05-22T08:21:05.732Z,160
2019-05-22T08:22:17.575Z,185
2019-05-22T08:23:27.694Z,155
2019-05-22T08:24:37.824Z,160
2019-05-22T08:25:47.974Z,135
2019-05-22T08:27:04.154Z,135
2019-05-22T08:28:14.041Z,125
2019-05-22T08:29:24.342Z,130
2019-05-22T08:30:34.264Z,130
2019-05-22T08:31:44.452Z,130
2019-05-22T08:32:54.635Z,170
2019-05-22T08:34:04.820Z,210
2019-05-22T08:35:14.692Z,200
2019-05-22T08:36:24.843Z,185
2019-05-22T08:37:34.959Z,145
2019-05-22T08:38:45.188Z,120
2019-05-22T08:39:55.320Z,130
2019-05-22T08:41:05.511Z,115
2019-05-22T08:42:15.639Z,135
2019-05-22T08:43:25.854Z,135
2019-05-22T08:44:35.977Z,145
2019-05-22T08:45:46.250Z,145
2019-05-22T08:46:56.672Z,170
2019-05-22T08:48:06.858Z,170
2019-05-22T08:49:17.008Z,155
2019-05-22T08:50:27.259Z,180
2019-05-22T08:51:37.375Z,200
2019-05-22T08:52:47.553Z,145
2019-05-22T08:53:58.571Z,150
2019-05-22T08:55:08.690Z,125
2019-05-22T08:56:18.815Z,135
2019-05-22T08:57:28.924Z,235
2019-05-22T08:58:39.058Z,180
2019-05-22T08:59:49.191Z,120
2019-05-22T09:00:59.360Z,175
2019-05-22T09:02:09.502Z,295
2019-05-22T09:03:19.622Z,210
2019-05-22T09:04:29.763Z,220
2019-05-22T09:05:39.934Z,240
2019-05-22T09:06:49.804Z,245
2019-05-22T09:07:59.919Z,305
2019-05-22T09:09:10.059Z,265
2019-05-22T09:10:20.238Z,180
2019-05-22T09:11:30.371Z,170
2019-05-22T09:12:40.503Z,155
2019-05-22T09:13:50.365Z,150
2019-05-22T09:15:00.275Z,170
2019-05-22T09:16:11.670Z,150
2019-05-22T09:17:21.856Z,170
2019-05-22T09:18:32.030Z,150
2019-05-22T09:19:42.173Z,180
2019-05-22T09:20:59.244Z,165
2019-05-22T09:22:09.562Z,190
2019-05-22T09:23:19.852Z,190
2019-05-22T09:24:30.209Z,215
2019-05-22T09:25:40.314Z,180
2019-05-22T09:26:50.448Z,170
2019-05-22T09:28:00.560Z,225
2019-05-22T09:29:10.675Z,295
2019-05-22T09:30:20.834Z,240
2019-05-22T09:31:30.980Z,195
2019-05-22T09:32:41.089Z,160
2019-05-22T09:33:51.435Z,165
2019-05-22T09:35:01.777Z,170
2019-05-22T09:36:12.049Z,175
2019-05-22T09:37:22.166Z,170
2019-05-22T09:38:32.296Z,170
2019-05-22T09:39:42.492Z,225
2019-05-22T09:40:52.616Z,210
2019-05-22T09:42:02.760Z,200
2019-05-22T09:43:12.904Z,240
2019-05-22T09:44:25.120Z,305
2019-05-22T09:45:35.371Z,250
2019-05-22T09:46:45.519Z,250
2019-05-22T09:47:55.680Z,215
2019-05-22T09:49:05.890Z,200
2019-05-22T09:50:16.130Z,230
2019-05-22T09:51:26.079Z,255
2019-05-22T09:52:36.238Z,265
2019-05-22T09:53:46.371Z,305
2019-05-22T09:54:56.479Z,265
2019-05-22T09:56:06.653Z,255
2019-05-22T09:57:17.049Z,315
2019-05-22T09:58:27.321Z,360
2019-05-22T09:59:37.507Z,365
2019-05-22T10:00:47.641Z,285
2019-05-22T10:01:57.874Z,290
2019-05-22T10:03:08.176Z,250
2019-05-22T10:04:18.341Z,290
2019-05-22T10:05:28.543Z,215
2019-05-22T10:06:38.675Z,175
2019-05-22T10:08:08.923Z,185
2019-05-22T10:09:19.042Z,175
2019-05-22T10:10:29.162Z,155
2019-05-22T10:11:38.778Z,130
2019-05-22T10:12:48.666Z,205
2019-05-22T10:13:58.792Z,185
2019-05-22T10:15:10.446Z,175
2019-05-22T10:16:20.672Z,165
2019-05-22T10:17:30.813Z,185
2019-05-22T10:18:40.951Z,165
2019-05-22T10:19:51.083Z,165
2019-05-22T10:21:01.258Z,160
2019-05-22T10:22:11.605Z,280
2019-05-22T10:23:25.781Z,385
2019-05-22T10:24:36.005Z,330
2019-05-22T10:25:46.128Z,290
2019-05-22T10:26:56.262Z,345
2019-05-22T10:28:08.997Z,295
2019-05-22T10:29:19.143Z,205
2019-05-22T10:30:29.115Z,195
2019-05-22T10:31:38.973Z,170
2019-05-22T10:32:49.098Z,120
2019-05-22T10:34:01.659Z,145
2019-05-22T10:35:11.429Z,180
2019-05-22T10:36:22.536Z,170
2019-05-22T10:37:32.651Z,150
2019-05-22T10:38:42.921Z,135
2019-05-22T10:39:53.044Z,180
2019-05-22T10:41:06.464Z,175
2019-05-22T10:42:16.615Z,205
2019-05-22T10:43:26.956Z,205
2019-05-22T10:44:37.076Z,240
2019-05-22T10:45:47.209Z,270
2019-05-22T10:46:57.344Z,295
2019-05-22T10:48:07.483Z,315
2019-05-22T10:49:17.615Z,305
2019-05-22T10:50:27.772Z,285
2019-05-22T10:51:37.909Z,310
2019-05-22T10:52:53.593Z,295
2019-05-22T10:54:04.127Z,285
2019-05-22T10:55:14.012Z,230
2019-05-22T10:56:24.152Z,240
2019-05-22T10:57:34.360Z,240
2019-05-22T10:58:44.484Z,250
2019-05-22T10:59:54.687Z,200
2019-05-22T11:01:04.842Z,215
2019-05-22T11:02:14.985Z,265
2019-05-22T11:03:25.112Z,280
2019-05-22T11:04:35.241Z,315
2019-05-22T11:05:45.388Z,285
2019-05-22T11:06:55.253Z,265
2019-05-22T11:08:05.498Z,190
2019-05-22T11:09:15.629Z,210
2019-05-22T11:10:25.770Z,275
2019-05-22T11:11:35.901Z,210
2019-05-22T11:12:46.058Z,165
2019-05-22T11:14:14.300Z,295
2019-05-22T11:15:24.435Z,310
2019-05-22T11:16:34.550Z,295
2019-05-22T11:17:44.687Z,310
2019-05-22T11:18:54.831Z,275
2019-05-22T11:20:36.872Z,195
2019-05-22T11:21:47.078Z,200
2019-05-22T11:22:57.319Z,195
2019-05-22T11:24:07.463Z,190
2019-05-22T11:25:17.573Z,160
2019-05-22T11:26:27.702Z,170
2019-05-22T11:27:37.830Z,180
2019-05-22T11:28:47.968Z,160
2019-05-22T11:29:57.849Z,175
2019-05-22T11:31:08.029Z,185
2019-05-22T11:32:18.151Z,180
2019-05-22T11:33:28.283Z,175
2019-05-22T11:34:38.690Z,165
2019-05-22T11:35:48.819Z,205
2019-05-22T11:36:58.962Z,235
2019-05-22T11:38:09.167Z,210
2019-05-22T11:39:19.322Z,230
2019-05-22T11:40:29.473Z,225
2019-05-22T11:41:39.619Z,260
2019-05-22T11:42:49.760Z,260
2019-05-22T11:43:59.938Z,240
2019-05-22T11:45:09.690Z,205
2019-05-22T11:46:19.577Z,185
2019-05-22T11:47:29.800Z,235
2019-05-22T11:48:39.984Z,230
2019-05-22T11:49:49.863Z,220
2019-05-22T11:51:03.417Z,230
2019-05-22T11:52:13.532Z,240
2019-05-22T11:53:23.693Z,240
2019-05-22T11:54:33.825Z,210
2019-05-22T11:55:55.192Z,175
2019-05-22T11:57:05.323Z,165
2019-05-22T11:58:15.465Z,165
2019-05-22T11:59:25.608Z,150
2019-05-22T12:00:35.499Z,160
2019-05-22T12:01:45.658Z,165
2019-05-22T12:02:55.821Z,165
2019-05-22T12:04:05.985Z,165
2019-05-22T12:05:16.113Z,160
2019-05-22T12:06:26.307Z,160
2019-05-22T12:07:36.443Z,145
2019-05-22T12:08:46.554Z,155
2019-05-22T12:09:56.700Z,160
2019-05-22T12:11:06.651Z,150
2019-05-22T12:12:16.804Z,210
2019-05-22T12:13:26.977Z,320
2019-05-22T12:14:37.112Z,420
2019-05-22T12:15:47.251Z,435
2019-05-22T12:17:00.401Z,370
2019-05-22T12:18:10.553Z,275
2019-05-22T12:19:20.676Z,250
2019-05-22T12:20:30.584Z,230
2019-05-22T12:21:40.710Z,195
2019-05-22T12:22:50.956Z,205
2019-05-22T12:24:01.085Z,245
2019-05-22T12:25:10.946Z,225
2019-05-22T12:26:20.842Z,245
2019-05-22T12:27:30.996Z,225
2019-05-22T12:28:40.870Z,330
2019-05-22T12:29:51.019Z,225
2019-05-22T12:31:01.171Z,245
2019-05-22T12:32:11.433Z,330
2019-05-22T12:33:23.898Z,425
2019-05-22T12:34:33.770Z,575
2019-05-22T12:35:43.545Z,530
2019-05-22T12:36:56.329Z,495
2019-05-22T12:38:06.936Z,535
2019-05-22T12:39:16.933Z,490
2019-05-22T12:40:27.087Z,440
2019-05-22T12:41:37.219Z,410
2019-05-22T12:42:47.369Z,330
2019-05-22T12:43:57.505Z,425
2019-05-22T12:45:08.438Z,405
2019-05-22T12:46:18.590Z,280
2019-05-22T12:47:28.712Z,230
2019-05-22T12:48:38.829Z,200
2019-05-22T12:49:49.005Z,190
2019-05-22T12:50:58.878Z,225
2019-05-22T12:52:09.093Z,215
2019-05-22T12:53:19.240Z,205
2019-05-22T12:54:49.808Z,210
2019-05-22T12:56:02.160Z,175
2019-05-22T12:57:12.301Z,135
2019-05-22T12:58:22.442Z,145
2019-05-22T12:59:32.670Z,170
2019-05-22T13:00:42.791Z,245
2019-05-22T13:01:52.935Z,205
2019-05-22T13:03:03.100Z,190
2019-05-22T13:04:13.237Z,180
2019-05-22T13:05:24.344Z,205
2019-05-22T13:06:34.477Z,210
2019-05-22T13:07:44.733Z,215
2019-05-22T13:08:54.897Z,235
2019-05-22T13:10:05.197Z,230
2019-05-22T13:11:15.450Z,210
2019-05-22T13:12:25.593Z,215
2019-05-22T13:13:35.852Z,200
2019-05-22T13:14:45.999Z,185
2019-05-22T13:15:56.242Z,220
2019-05-22T13:17:06.406Z,210
2019-05-22T13:18:16.764Z,215
2019-05-22T13:19:27.045Z,215
2019-05-22T13:20:52.281Z,280
2019-05-22T13:22:02.159Z,285
2019-05-22T13:23:12.303Z,280
2019-05-22T13:24:22.676Z,285
2019-05-22T13:25:32.585Z,330
2019-05-22T13:26:42.800Z,310
2019-05-22T13:27:53.043Z,290
2019-05-22T13:29:03.287Z,285
2019-05-22T13:30:13.444Z,205
2019-05-22T13:31:23.642Z,270
2019-05-22T13:32:33.794Z,235
2019-05-22T13:33:43.940Z,165
2019-05-22T13:34:54.158Z,140
2019-05-22T13:36:04.330Z,130
2019-05-22T13:37:14.506Z,135
2019-05-22T13:38:24.721Z,140
2019-05-22T13:39:34.905Z,150
2019-05-22T13:40:45.083Z,170
2019-05-22T13:41:55.211Z,235
2019-05-22T13:43:05.160Z,250
2019-05-22T13:44:15.304Z,235
2019-05-22T13:45:38.311Z,230
2019-05-22T13:46:48.474Z,235
2019-05-22T13:47:58.613Z,255
2019-05-22T13:49:08.812Z,280
2019-05-22T13:50:18.986Z,270
2019-05-22T13:51:29.154Z,275
2019-05-22T13:52:39.341Z,295
2019-05-22T13:53:49.499Z,260
2019-05-22T13:54:59.650Z,265
2019-05-22T13:56:09.606Z,275
2019-05-22T13:57:19.745Z,290
2019-05-22T13:58:29.888Z,295
2019-05-22T13:59:40.030Z,320
2019-05-22T14:00:50.166Z,325
2019-05-22T14:02:00.316Z,265
2019-05-22T14:03:10.476Z,330
2019-05-22T14:04:20.626Z,390
2019-05-22T14:05:30.832Z,490
2019-05-22T14:06:40.974Z,555
2019-05-22T14:07:51.119Z,620
2019-05-22T14:09:01.298Z,540
2019-05-22T14:10:11.476Z,560
2019-05-22T14:11:21.615Z,635
2019-05-22T14:12:31.778Z,695
2019-05-22T14:13:41.918Z,655
2019-05-22T14:14:52.068Z,715
2019-05-22T14:16:06.870Z,455
2019-05-22T14:17:16.754Z,365
2019-05-22T14:18:27.018Z,330
2019-05-22T14:19:37.174Z,270
2019-05-22T14:20:47.579Z,400
2019-05-22T14:22:01.554Z,645
2019-05-22T14:23:11.716Z,615
2019-05-22T14:24:21.941Z,525
2019-05-22T14:25:33.360Z,425
2019-05-22T14:28:01.537Z,390
2019-05-22T14:30:25.415Z,300
2019-05-22T14:35:44.962Z,465
